Terminal Aerodrome Forecast
Issued by NWS Riverton, WY

Home | Current Version | Previous Version | Text Only | Print | Product List | Glossary On
Versions: 1 2 3 4 5 6 7 8 9 10 11 12 13 14 15 16 17
294
FTUS45 KRIW 230526
TAFRIW
TAF
KRIW 230526Z 2306/2406 33011KT P6SM -SHRA OVC050
     FM231200 36014G22KT 5SM -RA BR OVC016
     FM232100 36014G24KT 3SM -SN OVC018
     FM240200 36014KT P6SM VCSH SCT020 OVC040
     FM240400 34009KT P6SM OVC050=

USA.gov is the U.S. government's official web portal to all federal, state and local government web resources and services.